Time;durP1;ratioP1;P1;durP2;ratioP2;P2;SDS_P1;SDS_P2;PMS_P1;PMS_P2;Temp;Humidity;BMP_temperature;BMP_pressure;BME280_temperature;BME280_humidity;BME280_pressure;Samples;Min_cycle;Max_cycle;Signal;HPM_P1;HPM_P2
2023/11/24 00:01:47;;;;;;;2.72;0.45;;;7.50;99.90;;;;;;5050643;28;20037;-67
2023/11/24 00:04:13;;;;;;;2.65;0.60;;;7.40;99.90;;;;;;5050297;28;20029;-67
2023/11/24 00:06:38;;;;;;;0.88;0.80;;;7.40;99.90;;;;;;5050626;28;20040;-67
2023/11/24 00:09:04;;;;;;;1.58;0.50;;;7.30;99.90;;;;;;5051268;28;20028;-66
2023/11/24 00:11:30;;;;;;;1.20;0.68;;;7.30;99.90;;;;;;5049720;28;20021;-67
2023/11/24 00:13:55;;;;;;;0.90;0.63;;;7.30;99.90;;;;;;5051588;28;20025;-67
2023/11/24 00:16:21;;;;;;;0.70;0.50;;;7.30;99.90;;;;;;5049348;28;20482;-66
2023/11/24 00:18:47;;;;;;;0.73;0.57;;;7.20;99.90;;;;;;5051157;28;20033;-66
2023/11/24 00:21:13;;;;;;;3.33;0.70;;;7.30;99.90;;;;;;5049618;28;20094;-67
2023/11/24 00:23:38;;;;;;;0.63;0.52;;;7.20;99.90;;;;;;5050530;28;20056;-67
2023/11/24 00:26:06;;;;;;;1.55;0.73;;;7.30;99.90;;;;;;5050491;28;20075;-67
2023/11/24 00:28:39;;;;;;;3.10;0.70;;;7.30;99.90;;;;;;5049924;28;20470;-66
2023/11/24 00:31:07;;;;;;;1.35;0.77;;;7.30;99.90;;;;;;5050386;28;20036;-67
2023/11/24 00:33:35;;;;;;;1.60;0.82;;;7.30;99.90;;;;;;5049952;28;20021;-67
2023/11/24 00:36:01;;;;;;;1.33;0.40;;;7.40;99.90;;;;;;5050008;28;20029;-67
2023/11/24 00:38:27;;;;;;;2.20;0.50;;;7.40;99.90;;;;;;5050045;28;20025;-66
2023/11/24 00:40:53;;;;;;;0.60;0.50;;;7.60;99.90;;;;;;5050012;28;20545;-66
2023/11/24 00:43:20;;;;;;;1.10;0.50;;;7.60;99.90;;;;;;5049709;28;20104;-67
2023/11/24 00:45:45;;;;;;;1.20;0.38;;;7.70;99.90;;;;;;5049904;28;20478;-67
2023/11/24 00:48:11;;;;;;;0.52;0.40;;;7.90;99.90;;;;;;5050492;28;20040;-66
2023/11/24 00:50:37;;;;;;;1.52;0.60;;;7.90;99.90;;;;;;5050326;28;20090;-67
2023/11/24 00:53:03;;;;;;;1.08;0.30;;;8.00;99.90;;;;;;5050283;28;20029;-66
2023/11/24 00:55:31;;;;;;;0.85;0.50;;;8.00;99.90;;;;;;5041695;28;20040;-67
2023/11/24 00:57:58;;;;;;;0.63;0.63;;;8.10;99.90;;;;;;5050712;28;20029;-67
2023/11/24 01:00:24;;;;;;;0.57;0.38;;;8.10;99.90;;;;;;5049266;28;20025;-66
2023/11/24 01:02:50;;;;;;;2.88;0.65;;;8.10;99.90;;;;;;5050209;28;20390;-66
2023/11/24 01:05:17;;;;;;;1.42;0.40;;;8.10;99.90;;;;;;5049857;28;20071;-66
2023/11/24 01:07:43;;;;;;;1.52;0.50;;;8.10;99.90;;;;;;5050546;28;20056;-66
2023/11/24 01:10:09;;;;;;;0.52;0.47;;;8.20;99.90;;;;;;5050587;28;20399;-67
2023/11/24 01:12:35;;;;;;;1.42;0.57;;;8.20;99.90;;;;;;5053944;28;20021;-67
2023/11/24 01:15:01;;;;;;;2.53;0.73;;;8.20;99.90;;;;;;5054679;28;20090;-66
2023/11/24 01:17:26;;;;;;;0.60;0.45;;;8.10;99.90;;;;;;5052699;28;20663;-67
2023/11/24 01:19:52;;;;;;;0.60;0.50;;;8.10;99.90;;;;;;5037887;28;20021;-66
2023/11/24 01:22:19;;;;;;;0.47;0.47;;;8.10;99.90;;;;;;5053811;28;20056;-67
2023/11/24 01:24:45;;;;;;;0.60;0.60;;;8.00;99.90;;;;;;5053739;28;20040;-66
2023/11/24 01:27:11;;;;;;;1.23;0.60;;;8.00;99.90;;;;;;5053400;28;20037;-66
2023/11/24 01:29:37;;;;;;;1.25;0.70;;;8.00;99.90;;;;;;5054411;28;20029;-66
2023/11/24 01:32:03;;;;;;;0.50;0.50;;;8.00;99.90;;;;;;5047380;28;20025;-66
2023/11/24 01:34:29;;;;;;;1.00;0.60;;;8.00;99.90;;;;;;5053341;28;20058;-66
2023/11/24 01:36:54;;;;;;;0.50;0.40;;;8.10;99.90;;;;;;5053633;28;20037;-66
2023/11/24 01:39:21;;;;;;;2.70;0.68;;;8.10;99.90;;;;;;5053911;28;20467;-66
2023/11/24 01:41:46;;;;;;;2.20;0.80;;;8.10;99.90;;;;;;5053394;28;20104;-66
2023/11/24 01:44:12;;;;;;;1.35;0.60;;;8.20;99.90;;;;;;5053336;28;20418;-67
2023/11/24 01:46:41;;;;;;;1.95;0.70;;;8.10;99.90;;;;;;5053561;28;20083;-66
2023/11/24 01:49:07;;;;;;;2.30;0.52;;;8.10;99.90;;;;;;5054392;28;20036;-66
2023/11/24 01:51:33;;;;;;;1.60;0.68;;;8.00;99.90;;;;;;5053003;28;20035;-66
2023/11/24 01:54:00;;;;;;;0.98;0.63;;;7.90;99.90;;;;;;5053582;28;20028;-65
2023/11/24 01:56:26;;;;;;;1.17;0.82;;;7.70;99.90;;;;;;5052994;28;20351;-66
2023/11/24 01:58:54;;;;;;;0.60;0.60;;;7.60;99.90;;;;;;5053777;28;20036;-66
2023/11/24 02:01:27;;;;;;;4.30;0.95;;;7.60;99.90;;;;;;5052409;28;20049;-66
2023/11/24 02:03:57;;;;;;;1.08;0.90;;;7.50;99.90;;;;;;5046165;28;20475;-66
2023/11/24 02:06:23;;;;;;;3.70;1.10;;;7.40;99.90;;;;;;5052477;28;20025;-66
2023/11/24 02:08:49;;;;;;;0.70;0.70;;;7.40;99.90;;;;;;5053523;28;20051;-66
2023/11/24 02:11:15;;;;;;;1.85;0.90;;;7.30;99.90;;;;;;5051814;28;20129;-66
2023/11/24 02:13:41;;;;;;;2.30;1.00;;;7.30;99.90;;;;;;5053518;28;20517;-66
2023/11/24 02:16:08;;;;;;;1.80;0.70;;;7.30;99.90;;;;;;5052833;28;20029;-66
2023/11/24 02:18:33;;;;;;;0.88;0.88;;;7.30;99.90;;;;;;5052536;28;20052;-66
2023/11/24 02:21:00;;;;;;;1.05;0.98;;;7.30;99.90;;;;;;5052766;28;20021;-66
2023/11/24 02:23:27;;;;;;;2.13;0.70;;;7.30;99.90;;;;;;5052420;28;20029;-66
2023/11/24 02:25:52;;;;;;;2.20;0.68;;;7.30;99.90;;;;;;5036246;28;20098;-66
2023/11/24 02:28:18;;;;;;;0.73;0.73;;;7.30;99.90;;;;;;5052049;28;20071;-66
2023/11/24 02:30:44;;;;;;;0.80;0.80;;;7.20;99.90;;;;;;5053139;28;20029;-66
2023/11/24 02:33:10;;;;;;;1.98;0.65;;;7.30;99.90;;;;;;5052040;28;20029;-66
2023/11/24 02:35:37;;;;;;;1.00;0.60;;;7.30;99.90;;;;;;5052289;28;20071;-66
2023/11/24 02:38:03;;;;;;;1.98;0.52;;;7.20;99.90;;;;;;5052985;28;20488;-66
2023/11/24 02:40:29;;;;;;;1.05;0.88;;;7.20;99.90;;;;;;5051708;28;20029;-66
2023/11/24 02:42:55;;;;;;;1.42;0.80;;;7.20;99.90;;;;;;5053035;28;20042;-66
2023/11/24 02:45:21;;;;;;;0.63;0.63;;;7.10;99.90;;;;;;5051598;28;20025;-66
2023/11/24 02:47:48;;;;;;;0.65;0.65;;;7.20;99.90;;;;;;5035369;28;20419;-66
2023/11/24 02:50:14;;;;;;;0.57;0.57;;;7.20;99.90;;;;;;5051505;28;20017;-66
2023/11/24 02:52:39;;;;;;;0.95;0.50;;;7.20;99.90;;;;;;5042895;28;20037;-66
2023/11/24 02:55:06;;;;;;;1.95;0.50;;;7.20;99.90;;;;;;5046431;28;20029;-65
2023/11/24 02:57:32;;;;;;;1.25;0.50;;;7.10;99.90;;;;;;5051289;28;20060;-65
2023/11/24 02:59:58;;;;;;;0.47;0.40;;;7.10;99.90;;;;;;5052315;28;20104;-66
2023/11/24 03:02:23;;;;;;;0.65;0.50;;;7.00;99.90;;;;;;5051504;28;20109;-66
2023/11/24 03:04:49;;;;;;;0.43;0.43;;;7.00;99.90;;;;;;5045763;28;20032;-66
2023/11/24 03:07:14;;;;;;;0.38;0.30;;;7.00;99.90;;;;;;5051320;28;20068;-66
2023/11/24 03:09:40;;;;;;;0.20;0.20;;;7.00;99.90;;;;;;5052476;28;20029;-65
2023/11/24 03:12:07;;;;;;;0.50;0.50;;;7.00;99.90;;;;;;5052023;28;20021;-66
2023/11/24 03:14:33;;;;;;;0.82;0.30;;;7.10;99.90;;;;;;5052085;28;20115;-65
2023/11/24 03:16:59;;;;;;;0.30;0.30;;;7.10;99.90;;;;;;5051059;28;20140;-66
2023/11/24 03:19:25;;;;;;;1.52;0.22;;;7.20;99.90;;;;;;5051548;28;20060;-66
2023/11/24 03:21:51;;;;;;;2.38;0.40;;;7.20;99.90;;;;;;5052282;28;20021;-65
2023/11/24 03:24:16;;;;;;;0.50;0.40;;;7.20;99.90;;;;;;5051287;28;20021;-66
2023/11/24 03:26:42;;;;;;;0.75;0.47;;;7.20;99.90;;;;;;5051301;28;20037;-66
2023/11/24 03:29:08;;;;;;;0.30;0.30;;;7.20;99.90;;;;;;5051936;28;20025;-65
2023/11/24 03:31:33;;;;;;;0.30;0.30;;;7.20;99.90;;;;;;5050062;28;20043;-66
2023/11/24 03:34:02;;;;;;;0.30;0.30;;;7.20;99.90;;;;;;5051556;28;20433;-66
2023/11/24 03:36:28;;;;;;;0.60;0.60;;;7.20;99.90;;;;;;5050431;28;20175;-66
2023/11/24 03:38:54;;;;;;;0.38;0.32;;;7.20;99.90;;;;;;5052787;28;20411;-65
2023/11/24 03:41:19;;;;;;;0.73;0.40;;;7.20;99.90;;;;;;5050727;28;20029;-66
2023/11/24 03:43:45;;;;;;;0.70;0.52;;;7.20;99.90;;;;;;5051306;28;20035;-65
2023/11/24 03:46:11;;;;;;;0.45;0.45;;;7.10;99.90;;;;;;5050622;28;20056;-66
2023/11/24 03:48:37;;;;;;;0.30;0.20;;;7.10;99.90;;;;;;5051377;28;20033;-65
2023/11/24 03:51:04;;;;;;;0.30;0.25;;;7.10;99.90;;;;;;5038584;28;20037;-65
2023/11/24 03:53:31;;;;;;;0.32;0.32;;;7.00;99.90;;;;;;5047847;28;20037;-65
2023/11/24 03:55:56;;;;;;;0.17;0.17;;;7.00;99.90;;;;;;5051716;28;20143;-65
2023/11/24 03:58:22;;;;;;;0.10;0.10;;;7.10;99.90;;;;;;5050639;28;20029;-65
2023/11/24 04:00:48;;;;;;;0.20;0.20;;;7.10;99.90;;;;;;5050684;28;20029;-65
2023/11/24 04:03:14;;;;;;;0.52;0.30;;;7.00;99.90;;;;;;5043888;28;20026;-66
2023/11/24 04:05:40;;;;;;;0.82;0.30;;;7.00;99.90;;;;;;5049254;28;20032;-66
2023/11/24 04:08:05;;;;;;;0.28;0.20;;;7.10;99.90;;;;;;5051558;28;20494;-66
2023/11/24 04:10:31;;;;;;;0.20;0.20;;;7.10;99.90;;;;;;5049785;28;20104;-66
2023/11/24 04:12:57;;;;;;;0.20;0.20;;;7.10;99.90;;;;;;5051721;28;20458;-65
2023/11/24 04:15:23;;;;;;;1.52;0.30;;;7.20;99.90;;;;;;5050178;28;20118;-66
2023/11/24 04:17:48;;;;;;;0.10;0.10;;;7.30;99.90;;;;;;5050509;28;20069;-66
2023/11/24 04:20:14;;;;;;;0.13;0.10;;;7.30;99.90;;;;;;5050007;28;20440;-65
2023/11/24 04:22:40;;;;;;;0.35;0.17;;;7.30;99.90;;;;;;5050976;28;20103;-67
2023/11/24 04:25:08;;;;;;;0.30;0.30;;;7.30;99.90;;;;;;5050849;28;20098;-66
2023/11/24 04:27:34;;;;;;;0.20;0.20;;;7.20;99.90;;;;;;5050072;28;20029;-66
2023/11/24 04:30:01;;;;;;;0.20;0.20;;;7.30;99.90;;;;;;5051565;28;20447;-65
2023/11/24 04:37:57;;;;;;;0.10;0.10;;;7.40;99.90;;;;;;4935115;23;19927;-68
2023/11/24 04:40:23;;;;;;;0.28;0.10;;;7.40;99.90;;;;;;4913412;29;20028;-68
2023/11/24 04:42:49;;;;;;;0.88;0.10;;;7.40;99.90;;;;;;4913323;29;20035;-67
2023/11/24 04:45:14;;;;;;;0.10;0.10;;;7.50;99.90;;;;;;4913171;29;20116;-68
2023/11/24 04:47:40;;;;;;;0.20;0.20;;;7.50;99.90;;;;;;4914328;29;20107;-67
2023/11/24 04:50:07;;;;;;;0.13;0.13;;;7.60;99.90;;;;;;4914266;29;20401;-67
2023/11/24 04:52:34;;;;;;;0.32;0.20;;;7.60;99.90;;;;;;4922543;29;20024;-67
2023/11/24 04:55:00;;;;;;;0.20;0.13;;;7.60;99.90;;;;;;4920768;29;20028;-68
2023/11/24 04:57:25;;;;;;;5.15;0.63;;;7.70;99.90;;;;;;4913690;29;20034;-67
2023/11/24 04:59:51;;;;;;;3.13;0.45;;;7.40;99.90;;;;;;4913815;29;20099;-67
2023/11/24 05:02:16;;;;;;;4.68;0.80;;;7.00;99.90;;;;;;4913857;29;20031;-67
2023/11/24 05:04:42;;;;;;;3.95;1.23;;;6.60;99.90;;;;;;4914541;29;20454;-67
2023/11/24 05:07:08;;;;;;;2.53;0.77;;;6.40;99.90;;;;;;4913345;29;20040;-67
2023/11/24 05:09:33;;;;;;;6.18;0.98;;;6.30;99.90;;;;;;4914667;29;20028;-67
2023/11/24 05:11:59;;;;;;;5.03;1.00;;;6.20;99.90;;;;;;4912878;29;20385;-68
2023/11/24 05:14:25;;;;;;;3.28;0.88;;;6.00;99.90;;;;;;4914909;29;20040;-68
2023/11/24 05:16:50;;;;;;;5.35;1.20;;;6.00;99.90;;;;;;4913619;29;20492;-67
2023/11/24 05:19:16;;;;;;;10.70;2.08;;;5.90;99.90;;;;;;4914015;29;20185;-67
2023/11/24 05:21:41;;;;;;;6.03;1.45;;;5.80;99.90;;;;;;4914296;29;20103;-68
2023/11/24 05:24:07;;;;;;;8.00;1.27;;;5.70;99.90;;;;;;4913839;29;20028;-68
2023/11/24 05:26:33;;;;;;;11.13;1.58;;;5.80;99.90;;;;;;4914292;29;20091;-68
2023/11/24 05:28:59;;;;;;;7.47;1.08;;;5.70;99.90;;;;;;4914030;29;20040;-69
2023/11/24 05:31:28;;;;;;;7.50;1.23;;;5.70;99.90;;;;;;4913801;29;20042;-68
2023/11/24 05:33:54;;;;;;;5.38;1.30;;;5.60;99.90;;;;;;4898101;29;20101;-68
2023/11/24 05:36:19;;;;;;;8.88;1.45;;;5.70;99.90;;;;;;4913501;29;20136;-68
2023/11/24 05:38:45;;;;;;;7.43;1.58;;;5.80;99.90;;;;;;4914411;29;20111;-68
2023/11/24 05:41:11;;;;;;;9.60;1.52;;;5.70;99.90;;;;;;4913304;29;20032;-68
2023/11/24 05:43:37;;;;;;;10.82;1.85;;;5.70;99.90;;;;;;4897244;29;20036;-68
2023/11/24 05:46:03;;;;;;;7.70;1.65;;;5.60;99.90;;;;;;4912533;29;20042;-68
2023/11/24 05:48:29;;;;;;;7.40;1.67;;;5.60;99.90;;;;;;4913819;29;20029;-68
2023/11/24 05:50:56;;;;;;;11.82;1.90;;;5.60;99.90;;;;;;4913073;29;20095;-68
2023/11/24 05:53:21;;;;;;;13.48;1.88;;;5.50;99.90;;;;;;4914303;29;20362;-67
2023/11/24 05:55:47;;;;;;;11.20;2.15;;;5.50;99.90;;;;;;4913680;29;20051;-68
2023/11/24 05:58:12;;;;;;;7.30;1.67;;;5.60;99.90;;;;;;4916924;29;20031;-68
2023/11/24 06:00:38;;;;;;;9.13;2.10;;;5.60;99.90;;;;;;4917649;29;20033;-68
2023/11/24 06:03:04;;;;;;;13.73;2.40;;;5.50;99.90;;;;;;4916971;29;20402;-68
2023/11/24 06:05:30;;;;;;;13.05;2.00;;;5.50;99.90;;;;;;4916919;29;20047;-65
2023/11/24 06:07:57;;;;;;;13.20;2.35;;;5.60;99.90;;;;;;4916512;29;20032;-64
2023/11/24 06:10:24;;;;;;;10.93;2.30;;;5.50;99.90;;;;;;4917163;29;20020;-65
2023/11/24 06:12:49;;;;;;;13.57;2.17;;;5.50;99.90;;;;;;4917055;29;20038;-65
2023/11/24 06:15:15;;;;;;;9.65;1.95;;;5.50;99.90;;;;;;4915910;29;20111;-66
2023/11/24 06:17:41;;;;;;;8.38;1.90;;;5.50;99.90;;;;;;4917400;29;20028;-66
2023/11/24 06:20:07;;;;;;;10.38;1.58;;;5.50;99.90;;;;;;4916580;29;20433;-67
2023/11/24 06:22:33;;;;;;;8.45;1.60;;;5.50;99.90;;;;;;4916845;29;20035;-65
2023/11/24 06:24:58;;;;;;;12.63;2.60;;;5.40;99.90;;;;;;4916191;29;20032;-65
2023/11/24 06:27:24;;;;;;;9.13;1.75;;;5.40;99.90;;;;;;4916898;29;20036;-65
2023/11/24 06:29:50;;;;;;;10.73;2.38;;;5.50;99.90;;;;;;4916366;29;20028;-65
2023/11/24 06:32:16;;;;;;;8.90;1.70;;;5.50;99.90;;;;;;4915536;29;20038;-65
2023/11/24 06:34:41;;;;;;;9.90;1.70;;;5.50;99.90;;;;;;4916967;29;20032;-70
2023/11/24 06:37:07;;;;;;;7.63;1.98;;;5.50;99.90;;;;;;4915299;29;20460;-68
2023/11/24 06:39:33;;;;;;;11.80;1.83;;;5.50;99.90;;;;;;4916968;29;20057;-67
2023/11/24 06:41:59;;;;;;;8.65;2.08;;;5.50;99.90;;;;;;4915425;29;20384;-67
2023/11/24 06:44:26;;;;;;;8.85;1.90;;;5.40;99.90;;;;;;4916696;29;20039;-67
2023/11/24 06:46:51;;;;;;;11.05;2.28;;;5.50;99.90;;;;;;4908235;29;20024;-67
2023/11/24 06:49:17;;;;;;;8.95;1.63;;;5.60;99.90;;;;;;4912444;29;20369;-67
2023/11/24 06:51:46;;;;;;;5.50;1.42;;;5.70;99.90;;;;;;4916137;29;20040;-67
2023/11/24 06:54:12;;;;;;;7.82;1.67;;;5.70;99.90;;;;;;4915604;29;20155;-67
2023/11/24 06:56:37;;;;;;;5.43;1.30;;;5.70;99.90;;;;;;4915355;29;20035;-67
2023/11/24 06:59:03;;;;;;;6.03;1.40;;;5.70;99.90;;;;;;4915204;29;20032;-67
2023/11/24 07:01:31;;;;;;;9.23;1.45;;;5.70;99.90;;;;;;4915381;29;20473;-67
2023/11/24 07:03:59;;;;;;;9.63;1.63;;;5.70;99.90;;;;;;4915209;29;20418;-67
2023/11/24 07:06:25;;;;;;;6.75;1.75;;;5.70;99.90;;;;;;4915735;29;20035;-67
2023/11/24 07:08:54;;;;;;;13.90;1.55;;;5.60;99.90;;;;;;4915062;29;20083;-66
2023/11/24 07:11:20;;;;;;;7.70;1.27;;;5.70;99.90;;;;;;4915755;29;20496;-69
2023/11/24 07:13:46;;;;;;;4.57;1.30;;;5.80;99.90;;;;;;4916864;29;20114;-68
2023/11/24 07:16:13;;;;;;;8.82;1.80;;;5.80;99.90;;;;;;4914608;29;20142;-68
2023/11/24 07:18:38;;;;;;;7.38;1.40;;;5.80;99.90;;;;;;4916254;29;20053;-68
2023/11/24 07:21:05;;;;;;;6.63;1.63;;;5.70;99.90;;;;;;4897493;29;20153;-68
2023/11/24 07:23:32;;;;;;;8.02;1.40;;;5.80;99.90;;;;;;4915866;29;20036;-67
2023/11/24 07:25:57;;;;;;;7.18;1.38;;;6.00;99.90;;;;;;4914548;29;20485;-68
2023/11/24 07:28:23;;;;;;;5.28;1.40;;;6.00;99.90;;;;;;4916262;29;20099;-68
2023/11/24 07:30:49;;;;;;;7.70;2.35;;;6.00;99.90;;;;;;4914345;29;20039;-68
2023/11/24 07:33:15;;;;;;;5.50;1.40;;;5.90;99.90;;;;;;4915139;29;20047;-68
2023/11/24 07:35:41;;;;;;;5.65;1.55;;;5.90;99.90;;;;;;4914990;29;20036;-68
2023/11/24 07:38:06;;;;;;;8.20;1.75;;;5.90;99.90;;;;;;4910587;29;20056;-68
2023/11/24 07:40:35;;;;;;;10.27;1.83;;;5.90;99.90;;;;;;4915521;29;20036;-71
2023/11/24 07:43:01;;;;;;;10.60;1.83;;;5.90;99.90;;;;;;4914646;29;20029;-67
2023/11/24 07:45:26;;;;;;;6.40;1.90;;;5.90;99.90;;;;;;4897706;29;20341;-68
2023/11/24 07:47:52;;;;;;;8.25;2.08;;;5.80;99.90;;;;;;4915077;29;20035;-68
2023/11/24 07:50:18;;;;;;;13.40;2.33;;;5.80;99.90;;;;;;4914728;29;20412;-68
2023/11/24 07:52:44;;;;;;;8.88;1.85;;;5.80;99.90;;;;;;4915510;29;20024;-67
2023/11/24 07:55:13;;;;;;;7.25;1.83;;;5.80;99.90;;;;;;4913925;29;20110;-68
2023/11/24 07:57:39;;;;;;;8.50;1.70;;;5.90;99.90;;;;;;4915241;29;20418;-68
2023/11/24 08:00:09;;;;;;;8.82;1.70;;;5.90;99.90;;;;;;4914047;29;20104;-68
2023/11/24 08:02:35;;;;;;;;;;;5.90;99.90;;;;;;4915238;29;20036;-68
2023/11/24 08:05:00;;;;;;;7.22;1.60;;;6.00;99.90;;;;;;4914448;29;19907;-68
2023/11/24 08:07:26;;;;;;;9.82;2.13;;;6.00;99.90;;;;;;4914939;29;20067;-68
2023/11/24 08:09:51;;;;;;;7.32;1.65;;;6.00;99.90;;;;;;4914963;29;20020;-68
2023/11/24 08:12:17;;;;;;;7.88;2.15;;;6.00;99.90;;;;;;4914077;29;20056;-68
2023/11/24 08:14:42;;;;;;;6.38;1.55;;;6.10;99.90;;;;;;4915280;29;20484;-67
2023/11/24 08:17:08;;;;;;;6.93;1.45;;;6.10;99.90;;;;;;4918804;29;20088;-68
2023/11/24 08:19:35;;;;;;;5.40;1.77;;;6.20;99.90;;;;;;4927205;29;20115;-67
2023/11/24 08:22:01;;;;;;;6.82;1.67;;;6.20;99.90;;;;;;4913646;29;20063;-67
2023/11/24 08:24:27;;;;;;;9.25;1.63;;;6.30;99.90;;;;;;4914905;29;20064;-68
2023/11/24 08:26:52;;;;;;;6.43;1.60;;;6.30;99.90;;;;;;4913395;29;20086;-68
2023/11/24 08:29:18;;;;;;;8.68;1.95;;;6.30;99.90;;;;;;4914733;29;20048;-67
2023/11/24 08:31:47;;;;;;;9.25;2.10;;;6.40;99.90;;;;;;4913228;29;20121;-67
2023/11/24 08:34:13;;;;;;;6.50;2.03;;;6.50;99.90;;;;;;4914137;29;20020;-67
2023/11/24 08:36:40;;;;;;;10.70;2.13;;;6.50;99.90;;;;;;4913908;28;20473;-67
2023/11/24 08:39:12;;;;;;;7.40;1.60;;;6.50;99.90;;;;;;4914087;29;20028;-67
2023/11/24 08:41:38;;;;;;;5.35;1.52;;;6.60;99.90;;;;;;4912224;29;20315;-67
2023/11/24 08:44:04;;;;;;;7.97;1.65;;;6.70;99.90;;;;;;4913912;29;20052;-67
2023/11/24 08:46:30;;;;;;;8.48;1.75;;;6.70;99.90;;;;;;4913747;29;20086;-67
2023/11/24 08:48:56;;;;;;;8.70;1.90;;;6.70;99.90;;;;;;4913654;29;20036;-67
2023/11/24 08:51:21;;;;;;;8.68;1.45;;;6.70;99.90;;;;;;4913913;29;20035;-67
2023/11/24 08:53:47;;;;;;;9.63;1.98;;;6.90;99.90;;;;;;4914844;29;20032;-67
2023/11/24 08:56:12;;;;;;;14.00;2.30;;;6.90;99.90;;;;;;4913076;29;20028;-67
2023/11/24 08:58:38;;;;;;;11.40;1.92;;;7.00;99.90;;;;;;4914829;29;20502;-67
2023/11/24 09:01:05;;;;;;;10.80;2.05;;;7.00;99.90;;;;;;4912859;29;20036;-67
2023/11/24 09:03:31;;;;;;;9.50;2.38;;;7.10;99.90;;;;;;4914423;29;20032;-67
2023/11/24 09:05:57;;;;;;;8.93;1.95;;;7.10;99.90;;;;;;4913078;29;20420;-67
2023/11/24 09:08:23;;;;;;;9.05;2.13;;;7.30;99.90;;;;;;4897403;29;20043;-67
2023/11/24 09:10:49;;;;;;;12.45;2.00;;;7.30;99.90;;;;;;4910612;29;20039;-67
2023/11/24 09:13:15;;;;;;;7.25;2.00;;;7.40;99.90;;;;;;4913548;29;20119;-67
2023/11/24 09:15:43;;;;;;;11.02;1.73;;;7.40;99.90;;;;;;4913876;29;20043;-67
2023/11/24 09:18:12;;;;;;;13.55;2.28;;;7.50;99.90;;;;;;4913296;29;20024;-67
2023/11/24 09:20:38;;;;;;;14.52;1.75;;;7.60;99.90;;;;;;4914132;29;20035;-67
2023/11/24 09:23:04;;;;;;;12.70;2.45;;;7.60;99.90;;;;;;4913341;29;20312;-67
2023/11/24 09:25:32;;;;;;;9.77;1.88;;;7.00;99.90;;;;;;4913759;29;20036;-67
2023/11/24 09:27:58;;;;;;;17.27;2.13;;;7.60;99.90;;;;;;4913182;29;20043;-67
2023/11/24 09:30:24;;;;;;;10.23;2.10;;;7.60;99.90;;;;;;4914090;29;20373;-67
2023/11/24 09:32:54;;;;;;;12.88;2.10;;;7.60;99.90;;;;;;4913761;29;20036;-67
2023/11/24 09:35:25;;;;;;;7.75;2.20;;;7.60;99.90;;;;;;4917157;29;20044;-67
2023/11/24 09:37:52;;;;;;;9.20;2.10;;;7.60;99.90;;;;;;4917598;29;20056;-67
2023/11/24 09:40:22;;;;;;;9.63;2.05;;;7.50;99.90;;;;;;4916867;29;20040;-67
2023/11/24 09:42:49;;;;;;;6.30;1.63;;;7.50;99.90;;;;;;4918018;29;20470;-67
2023/11/24 09:45:20;;;;;;;12.18;2.63;;;7.40;99.90;;;;;;4916092;29;20028;-67
2023/11/24 09:47:51;;;;;;;11.65;1.95;;;7.40;99.90;;;;;;4917510;29;20032;-67
2023/11/24 09:50:24;;;;;;;10.43;2.13;;;7.40;99.90;;;;;;4916303;29;20028;-67
2023/11/24 09:52:56;;;;;;;11.82;2.38;;;7.30;99.90;;;;;;4917350;29;20087;-66
2023/11/24 09:55:23;;;;;;;16.30;3.20;;;7.50;99.90;;;;;;4917144;29;20040;-67
2023/11/24 09:57:52;;;;;;;16.67;2.22;;;7.50;99.90;;;;;;4917644;29;20032;-67
2023/11/24 10:00:19;;;;;;;12.88;2.03;;;7.60;99.90;;;;;;4916091;29;20047;-67
2023/11/24 10:02:51;;;;;;;16.77;2.97;;;7.70;99.90;;;;;;4917024;29;20040;-67
2023/11/24 10:05:18;;;;;;;16.42;2.20;;;7.80;99.90;;;;;;4915797;29;20054;-66
2023/11/24 10:07:46;;;;;;;9.40;2.10;;;7.80;99.90;;;;;;4917175;29;20118;-67
2023/11/24 10:10:28;;;;;;;14.05;2.40;;;7.80;99.90;;;;;;4915833;29;20028;-67
2023/11/24 10:12:59;;;;;;;16.02;2.38;;;7.80;99.90;;;;;;4917159;29;20034;-66
2023/11/24 10:15:25;;;;;;;16.40;2.65;;;7.70;99.90;;;;;;4916482;29;20523;-67
2023/11/24 10:17:51;;;;;;;11.35;2.08;;;7.80;99.90;;;;;;4917413;29;20035;-67
2023/11/24 10:20:22;;;;;;;13.43;1.90;;;7.80;99.90;;;;;;4916383;29;20042;-67
2023/11/24 10:22:49;;;;;;;8.77;1.92;;;7.80;99.90;;;;;;4917312;29;20024;-67
2023/11/24 10:25:20;;;;;;;14.15;3.20;;;7.70;99.90;;;;;;4915775;29;20040;-67
2023/11/24 10:27:46;;;;;;;11.98;2.38;;;7.70;99.90;;;;;;4917052;29;20552;-67
2023/11/24 10:30:12;;;;;;;11.45;2.00;;;7.80;99.90;;;;;;4915854;29;20065;-67
2023/11/24 10:32:39;;;;;;;10.80;2.20;;;7.80;99.90;;;;;;4916956;29;20106;-66
2023/11/24 10:35:06;;;;;;;12.52;1.92;;;7.90;99.90;;;;;;4916142;29;20031;-66
2023/11/24 10:37:33;;;;;;;17.15;3.08;;;8.00;99.90;;;;;;4916253;28;20068;-67
2023/11/24 10:40:03;;;;;;;12.88;2.00;;;8.20;99.90;;;;;;4916070;29;20533;-67
2023/11/24 10:42:31;;;;;;;;;;;8.20;99.90;;;;;;4915910;29;20073;-67
2023/11/24 10:45:02;;;;;;;12.85;2.90;;;8.30;99.90;;;;;;4915665;29;19918;-68
2023/11/24 10:47:36;;;;;;;19.27;2.72;;;8.40;99.90;;;;;;4916277;29;20040;-67
2023/11/24 10:50:12;;;;;;;8.65;1.95;;;8.50;99.90;;;;;;4915761;29;20114;-67
2023/11/24 10:53:10;;;;;;;8.63;1.92;;;8.60;99.90;;;;;;4916736;29;20115;-66
2023/11/24 10:55:38;;;;;;;7.72;1.67;;;8.80;99.90;;;;;;4916274;29;20043;-66
2023/11/24 10:58:05;;;;;;;13.18;1.83;;;8.90;99.90;;;;;;4915924;29;20171;-67
2023/11/24 11:00:30;;;;;;;14.60;3.22;;;8.80;99.90;;;;;;4915779;29;20060;-66
2023/11/24 11:02:57;;;;;;;13.70;2.50;;;8.80;99.90;;;;;;4916314;29;20076;-66
2023/11/24 11:05:46;;;;;;;9.95;2.63;;;8.80;99.90;;;;;;4913145;29;20032;-67
2023/11/24 11:08:27;;;;;;;9.50;2.10;;;8.80;99.90;;;;;;4915538;29;20486;-67
2023/11/24 11:11:28;;;;;;;14.85;3.40;;;8.80;99.90;;;;;;4916072;29;20035;-66
2023/11/24 11:13:57;;;;;;;11.48;2.13;;;8.80;99.90;;;;;;4916157;29;20032;-66
2023/11/24 11:16:22;;;;;;;10.27;2.33;;;8.80;99.90;;;;;;4915110;29;20059;-66
2023/11/24 11:18:49;;;;;;;12.55;2.78;;;8.80;99.90;;;;;;4916240;29;20035;-66
2023/11/24 11:21:29;;;;;;;13.90;3.03;;;9.00;99.90;;;;;;4914689;29;20362;-67
2023/11/24 11:23:56;;;;;;;;;;;9.00;99.90;;;;;;4919840;29;20034;-67
2023/11/24 11:26:47;;;;;;;14.32;2.00;;;9.00;99.90;;;;;;4915121;29;19915;-67
2023/11/24 11:29:23;;;;;;;11.55;2.13;;;9.00;99.90;;;;;;4906777;29;20044;-66
2023/11/24 11:31:50;;;;;;;10.85;2.40;;;8.90;99.90;;;;;;4915703;29;20035;-66
2023/11/24 11:34:17;;;;;;;11.00;2.10;;;8.70;99.90;;;;;;4915285;29;20043;-67
2023/11/24 11:37:01;;;;;;;10.90;2.28;;;8.60;99.90;;;;;;4915022;29;20513;-67
2023/11/24 11:39:29;;;;;;;15.18;2.85;;;8.50;99.90;;;;;;4916122;29;20432;-66
2023/11/24 11:41:56;;;;;;;12.55;2.10;;;8.50;99.90;;;;;;4915584;29;20079;-66
2023/11/24 11:44:36;;;;;;;9.35;1.85;;;8.50;99.90;;;;;;4915078;29;21396;-66
2023/11/24 11:47:16;;;;;;;;;;;8.50;99.90;;;;;;4915028;29;20470;-68
2023/11/24 11:49:42;;;;;;;11.43;2.60;;;8.40;99.90;;;;;;4916113;29;19921;-67
2023/11/24 11:52:11;;;;;;;9.60;2.03;;;8.30;99.90;;;;;;4913801;29;20043;-67
2023/11/24 11:54:38;;;;;;;7.60;1.90;;;8.30;99.90;;;;;;4915357;29;20032;-66
2023/11/24 11:57:04;;;;;;;10.00;1.95;;;8.30;99.90;;;;;;4914471;29;20135;-66
2023/11/24 11:59:30;;;;;;;11.65;1.98;;;8.10;99.90;;;;;;4915595;29;20504;-66
2023/11/24 12:01:56;;;;;;;9.27;1.88;;;7.90;99.90;;;;;;4914711;29;20032;-67
2023/11/24 12:04:22;;;;;;;8.90;1.98;;;7.60;99.90;;;;;;4898729;29;20485;-67
2023/11/24 12:06:51;;;;;;;12.40;1.92;;;7.30;99.90;;;;;;4914536;29;20032;-66
2023/11/24 12:09:20;;;;;;;11.30;2.67;;;7.10;99.90;;;;;;4914545;29;20067;-67
2023/11/24 12:11:45;;;;;;;8.27;1.58;;;7.00;99.90;;;;;;4914970;29;20060;-67
2023/11/24 12:14:14;;;;;;;7.03;2.20;;;7.10;99.90;;;;;;4914361;29;20066;-67
2023/11/24 12:16:43;;;;;;;18.63;3.63;;;7.10;99.90;;;;;;4914446;29;20036;-67
2023/11/24 12:19:10;;;;;;;13.80;3.05;;;7.20;99.90;;;;;;4914531;29;20058;-67
2023/11/24 12:21:36;;;;;;;12.63;3.30;;;7.10;99.90;;;;;;4914665;29;20052;-66
2023/11/24 12:24:04;;;;;;;12.15;2.65;;;7.00;99.90;;;;;;4914279;29;20055;-66
2023/11/24 12:26:31;;;;;;;17.45;3.15;;;6.80;99.90;;;;;;4913780;29;20380;-66
2023/11/24 12:28:59;;;;;;;15.73;2.90;;;6.60;99.90;;;;;;4915497;29;20043;-66
2023/11/24 12:31:28;;;;;;;14.73;2.72;;;6.30;99.90;;;;;;4914240;29;20131;-65
2023/11/24 12:33:55;;;;;;;12.07;2.03;;;6.20;99.90;;;;;;4915031;29;20024;-65
2023/11/24 12:36:21;;;;;;;10.63;1.90;;;6.20;99.90;;;;;;4914119;28;20110;-65
2023/11/24 12:38:48;;;;;;;12.77;2.42;;;6.10;99.90;;;;;;4915296;29;20090;-65
2023/11/24 12:41:15;;;;;;;14.50;1.85;;;6.00;99.90;;;;;;4913471;29;20028;-66
2023/11/24 12:43:42;;;;;;;7.40;1.70;;;;;;;;;;4914912;29;20028;-65
2023/11/24 12:46:23;;;;;;;6.35;1.20;;;6.20;99.90;;;;;;4913061;29;20123;-65
2023/11/24 12:49:04;;;;;;;10.30;1.50;;;;;;;;;;4914726;29;20103;-65
2023/11/24 12:51:30;;;;;;;6.65;1.58;;;;;;;;;;4914334;29;20075;-66
2023/11/24 12:53:56;;;;;;;5.60;0.75;;;;;;;;;;4914388;29;20028;-64
2023/11/24 12:56:23;;;;;;;5.93;1.23;;;;;;;;;;4913362;29;20115;-66
2023/11/24 12:58:50;;;;;;;4.90;1.38;;;;;;;;;;4913664;29;20095;-65
2023/11/24 13:01:16;;;;;;;6.80;1.35;;;;;;;;;;4913113;29;20028;-66
2023/11/24 13:03:42;;;;;;;8.20;1.90;;;;;;;;;;4914476;29;20485;-65